sensor_id;sensor_type;location;lat;lon;timestamp;P1;durP1;ratioP1;P2;durP2;ratioP2
3101;SDS011;1561;42.666;23.392;2023-04-30T00:01:23;15.13;;;9.97;;
3101;SDS011;1561;42.666;23.392;2023-04-30T00:03:50;11.90;;;9.00;;
3101;SDS011;1561;42.666;23.392;2023-04-30T00:06:23;10.30;;;8.53;;
3101;SDS011;1561;42.666;23.392;2023-04-30T00:08:54;10.30;;;8.70;;
3101;SDS011;1561;42.666;23.392;2023-04-30T00:11:22;11.23;;;8.80;;
3101;SDS011;1561;42.666;23.392;2023-04-30T00:13:50;18.07;;;9.73;;
3101;SDS011;1561;42.666;23.392;2023-04-30T00:16:26;23.67;;;9.50;;
3101;SDS011;1561;42.666;23.392;2023-04-30T00:18:55;13.93;;;10.90;;
3101;SDS011;1561;42.666;23.392;2023-04-30T00:21:26;16.13;;;10.07;;
3101;SDS011;1561;42.666;23.392;2023-04-30T00:23:57;13.23;;;9.37;;
3101;SDS011;1561;42.666;23.392;2023-04-30T00:26:25;12.83;;;9.40;;
3101;SDS011;1561;42.666;23.392;2023-04-30T00:28:52;16.40;;;9.63;;
3101;SDS011;1561;42.666;23.392;2023-04-30T00:31:21;17.93;;;9.80;;
3101;SDS011;1561;42.666;23.392;2023-04-30T00:33:49;16.30;;;11.40;;
3101;SDS011;1561;42.666;23.392;2023-04-30T00:36:16;14.20;;;10.00;;
3101;SDS011;1561;42.666;23.392;2023-04-30T00:38:44;14.67;;;10.40;;
3101;SDS011;1561;42.666;23.392;2023-04-30T00:41:14;12.33;;;9.90;;
3101;SDS011;1561;42.666;23.392;2023-04-30T00:43:43;15.63;;;10.77;;
3101;SDS011;1561;42.666;23.392;2023-04-30T00:46:12;14.33;;;10.40;;
3101;SDS011;1561;42.666;23.392;2023-04-30T00:48:39;19.43;;;10.80;;
3101;SDS011;1561;42.666;23.392;2023-04-30T00:51:07;15.47;;;10.47;;
3101;SDS011;1561;42.666;23.392;2023-04-30T00:53:34;11.67;;;10.13;;
3101;SDS011;1561;42.666;23.392;2023-04-30T00:56:05;18.43;;;10.90;;
3101;SDS011;1561;42.666;23.392;2023-04-30T00:58:43;14.90;;;9.67;;
3101;SDS011;1561;42.666;23.392;2023-04-30T01:01:13;15.70;;;11.73;;
3101;SDS011;1561;42.666;23.392;2023-04-30T01:03:42;16.83;;;12.30;;
3101;SDS011;1561;42.666;23.392;2023-04-30T01:06:09;17.10;;;12.27;;
3101;SDS011;1561;42.666;23.392;2023-04-30T01:08:36;17.70;;;12.03;;
3101;SDS011;1561;42.666;23.392;2023-04-30T01:11:08;13.67;;;11.27;;
3101;SDS011;1561;42.666;23.392;2023-04-30T01:13:43;15.20;;;11.70;;
3101;SDS011;1561;42.666;23.392;2023-04-30T01:16:32;13.97;;;10.97;;
3101;SDS011;1561;42.666;23.392;2023-04-30T01:19:03;16.83;;;10.30;;
3101;SDS011;1561;42.666;23.392;2023-04-30T01:21:31;14.40;;;10.20;;
3101;SDS011;1561;42.666;23.392;2023-04-30T01:24:05;14.10;;;8.73;;
3101;SDS011;1561;42.666;23.392;2023-04-30T01:26:51;13.20;;;8.93;;
3101;SDS011;1561;42.666;23.392;2023-04-30T01:29:24;9.97;;;8.23;;
3101;SDS011;1561;42.666;23.392;2023-04-30T01:31:59;13.37;;;9.10;;
3101;SDS011;1561;42.666;23.392;2023-04-30T01:34:30;9.67;;;8.07;;
3101;SDS011;1561;42.666;23.392;2023-04-30T01:37:01;14.00;;;7.47;;
3101;SDS011;1561;42.666;23.392;2023-04-30T01:39:46;9.97;;;7.33;;
3101;SDS011;1561;42.666;23.392;2023-04-30T01:42:21;12.67;;;7.03;;
3101;SDS011;1561;42.666;23.392;2023-04-30T01:44:56;11.20;;;7.80;;
3101;SDS011;1561;42.666;23.392;2023-04-30T01:47:29;8.30;;;6.53;;
3101;SDS011;1561;42.666;23.392;2023-04-30T01:50:01;6.27;;;5.67;;
3101;SDS011;1561;42.666;23.392;2023-04-30T01:52:35;7.73;;;5.70;;
3101;SDS011;1561;42.666;23.392;2023-04-30T01:55:07;8.87;;;6.03;;
3101;SDS011;1561;42.666;23.392;2023-04-30T01:57:37;6.87;;;6.07;;
3101;SDS011;1561;42.666;23.392;2023-04-30T02:00:08;6.93;;;5.70;;
3101;SDS011;1561;42.666;23.392;2023-04-30T02:02:40;6.20;;;5.60;;
3101;SDS011;1561;42.666;23.392;2023-04-30T02:05:07;6.53;;;5.30;;
3101;SDS011;1561;42.666;23.392;2023-04-30T02:07:42;6.33;;;5.70;;
3101;SDS011;1561;42.666;23.392;2023-04-30T02:10:11;7.80;;;6.27;;
3101;SDS011;1561;42.666;23.392;2023-04-30T02:12:39;7.80;;;6.30;;
3101;SDS011;1561;42.666;23.392;2023-04-30T02:15:19;6.50;;;5.90;;
3101;SDS011;1561;42.666;23.392;2023-04-30T02:17:50;7.10;;;5.73;;
3101;SDS011;1561;42.666;23.392;2023-04-30T02:20:22;6.80;;;6.10;;
3101;SDS011;1561;42.666;23.392;2023-04-30T02:23:06;8.20;;;6.40;;
3101;SDS011;1561;42.666;23.392;2023-04-30T02:25:35;6.80;;;6.10;;
3101;SDS011;1561;42.666;23.392;2023-04-30T02:28:04;7.30;;;6.60;;
3101;SDS011;1561;42.666;23.392;2023-04-30T02:30:36;7.93;;;5.87;;
3101;SDS011;1561;42.666;23.392;2023-04-30T02:33:04;6.90;;;5.40;;
3101;SDS011;1561;42.666;23.392;2023-04-30T02:35:32;7.13;;;5.67;;
3101;SDS011;1561;42.666;23.392;2023-04-30T02:38:01;6.93;;;6.23;;
3101;SDS011;1561;42.666;23.392;2023-04-30T02:40:31;7.53;;;6.10;;
3101;SDS011;1561;42.666;23.392;2023-04-30T02:42:59;8.60;;;6.63;;
3101;SDS011;1561;42.666;23.392;2023-04-30T02:45:26;11.00;;;6.47;;
3101;SDS011;1561;42.666;23.392;2023-04-30T02:47:56;13.33;;;6.80;;
3101;SDS011;1561;42.666;23.392;2023-04-30T02:50:29;7.47;;;6.17;;
3101;SDS011;1561;42.666;23.392;2023-04-30T02:53:08;8.70;;;6.87;;
3101;SDS011;1561;42.666;23.392;2023-04-30T02:55:39;6.47;;;5.83;;
3101;SDS011;1561;42.666;23.392;2023-04-30T02:58:09;7.47;;;6.77;;
3101;SDS011;1561;42.666;23.392;2023-04-30T03:00:38;8.23;;;6.80;;
3101;SDS011;1561;42.666;23.392;2023-04-30T03:03:17;8.10;;;6.30;;
3101;SDS011;1561;42.666;23.392;2023-04-30T03:05:47;6.80;;;6.00;;
3101;SDS011;1561;42.666;23.392;2023-04-30T03:08:20;7.70;;;6.13;;
3101;SDS011;1561;42.666;23.392;2023-04-30T03:10:47;5.40;;;4.90;;
3101;SDS011;1561;42.666;23.392;2023-04-30T03:13:17;6.03;;;5.00;;
3101;SDS011;1561;42.666;23.392;2023-04-30T03:15:44;7.80;;;5.47;;
3101;SDS011;1561;42.666;23.392;2023-04-30T03:18:13;8.00;;;5.67;;
3101;SDS011;1561;42.666;23.392;2023-04-30T03:20:39;6.50;;;5.47;;
3101;SDS011;1561;42.666;23.392;2023-04-30T03:23:12;6.57;;;5.43;;
3101;SDS011;1561;42.666;23.392;2023-04-30T03:25:39;7.40;;;5.90;;
3101;SDS011;1561;42.666;23.392;2023-04-30T03:28:05;6.13;;;5.53;;
3101;SDS011;1561;42.666;23.392;2023-04-30T03:30:32;6.73;;;5.93;;
3101;SDS011;1561;42.666;23.392;2023-04-30T03:33:05;6.70;;;6.00;;
3101;SDS011;1561;42.666;23.392;2023-04-30T03:35:36;10.50;;;6.23;;
3101;SDS011;1561;42.666;23.392;2023-04-30T03:38:07;6.73;;;6.03;;
3101;SDS011;1561;42.666;23.392;2023-04-30T03:40:35;6.77;;;5.37;;
3101;SDS011;1561;42.666;23.392;2023-04-30T03:43:05;9.27;;;6.27;;
3101;SDS011;1561;42.666;23.392;2023-04-30T03:45:46;6.60;;;5.70;;
3101;SDS011;1561;42.666;23.392;2023-04-30T03:48:14;7.80;;;6.10;;
3101;SDS011;1561;42.666;23.392;2023-04-30T03:50:44;8.23;;;6.57;;
3101;SDS011;1561;42.666;23.392;2023-04-30T03:53:12;7.33;;;6.40;;
3101;SDS011;1561;42.666;23.392;2023-04-30T03:55:40;7.17;;;5.33;;
3101;SDS011;1561;42.666;23.392;2023-04-30T03:58:08;8.20;;;6.03;;
3101;SDS011;1561;42.666;23.392;2023-04-30T04:00:36;6.00;;;5.40;;
3101;SDS011;1561;42.666;23.392;2023-04-30T04:03:07;7.50;;;5.50;;
3101;SDS011;1561;42.666;23.392;2023-04-30T04:05:47;7.50;;;6.50;;
3101;SDS011;1561;42.666;23.392;2023-04-30T04:08:19;6.87;;;6.03;;
3101;SDS011;1561;42.666;23.392;2023-04-30T04:10:49;7.63;;;6.13;;
3101;SDS011;1561;42.666;23.392;2023-04-30T04:13:21;8.30;;;6.30;;
3101;SDS011;1561;42.666;23.392;2023-04-30T04:15:52;6.43;;;5.80;;
3101;SDS011;1561;42.666;23.392;2023-04-30T04:24:11;9.77;;;6.33;;
3101;SDS011;1561;42.666;23.392;2023-04-30T04:26:39;7.50;;;5.87;;
3101;SDS011;1561;42.666;23.392;2023-04-30T04:29:06;6.13;;;5.30;;
3101;SDS011;1561;42.666;23.392;2023-04-30T04:31:39;9.27;;;6.10;;
3101;SDS011;1561;42.666;23.392;2023-04-30T04:34:16;7.00;;;6.10;;
3101;SDS011;1561;42.666;23.392;2023-04-30T04:36:50;8.13;;;6.13;;
3101;SDS011;1561;42.666;23.392;2023-04-30T04:39:21;7.77;;;5.90;;
3101;SDS011;1561;42.666;23.392;2023-04-30T04:41:48;7.10;;;6.40;;
3101;SDS011;1561;42.666;23.392;2023-04-30T04:44:19;7.13;;;6.43;;
3101;SDS011;1561;42.666;23.392;2023-04-30T04:46:48;9.33;;;6.23;;
3101;SDS011;1561;42.666;23.392;2023-04-30T04:49:19;8.73;;;6.80;;
3101;SDS011;1561;42.666;23.392;2023-04-30T04:51:48;9.10;;;6.73;;
3101;SDS011;1561;42.666;23.392;2023-04-30T04:54:27;6.53;;;5.83;;
3101;SDS011;1561;42.666;23.392;2023-04-30T04:56:55;6.87;;;6.20;;
3101;SDS011;1561;42.666;23.392;2023-04-30T04:59:23;6.63;;;6.03;;
3101;SDS011;1561;42.666;23.392;2023-04-30T05:01:57;8.53;;;6.33;;
3101;SDS011;1561;42.666;23.392;2023-04-30T05:04:25;8.47;;;7.60;;
3101;SDS011;1561;42.666;23.392;2023-04-30T05:06:59;9.00;;;7.27;;
3101;SDS011;1561;42.666;23.392;2023-04-30T05:12:21;7.97;;;7.03;;
3101;SDS011;1561;42.666;23.392;2023-04-30T05:14:50;9.50;;;6.83;;
3101;SDS011;1561;42.666;23.392;2023-04-30T05:17:19;14.37;;;8.53;;
3101;SDS011;1561;42.666;23.392;2023-04-30T05:19:48;10.93;;;8.10;;
3101;SDS011;1561;42.666;23.392;2023-04-30T05:22:33;11.33;;;7.80;;
3101;SDS011;1561;42.666;23.392;2023-04-30T05:25:06;9.63;;;8.30;;
3101;SDS011;1561;42.666;23.392;2023-04-30T05:27:39;9.40;;;7.30;;
3101;SDS011;1561;42.666;23.392;2023-04-30T05:30:07;10.10;;;7.90;;
3101;SDS011;1561;42.666;23.392;2023-04-30T05:32:43;11.03;;;7.80;;
3101;SDS011;1561;42.666;23.392;2023-04-30T05:35:22;11.47;;;8.50;;
3101;SDS011;1561;42.666;23.392;2023-04-30T05:38:03;9.40;;;7.30;;
3101;SDS011;1561;42.666;23.392;2023-04-30T05:40:32;14.63;;;10.67;;
3101;SDS011;1561;42.666;23.392;2023-04-30T05:43:08;18.10;;;11.63;;
3101;SDS011;1561;42.666;23.392;2023-04-30T05:45:36;15.50;;;11.53;;
3101;SDS011;1561;42.666;23.392;2023-04-30T05:48:12;13.43;;;11.27;;
3101;SDS011;1561;42.666;23.392;2023-04-30T05:50:39;15.23;;;12.53;;
3101;SDS011;1561;42.666;23.392;2023-04-30T05:53:09;13.87;;;11.90;;
3101;SDS011;1561;42.666;23.392;2023-04-30T05:55:37;16.03;;;11.53;;
3101;SDS011;1561;42.666;23.392;2023-04-30T05:58:19;14.50;;;11.80;;
3101;SDS011;1561;42.666;23.392;2023-04-30T06:00:47;14.53;;;11.80;;
3101;SDS011;1561;42.666;23.392;2023-04-30T06:03:17;17.43;;;12.67;;
3101;SDS011;1561;42.666;23.392;2023-04-30T06:05:47;14.50;;;12.10;;
3101;SDS011;1561;42.666;23.392;2023-04-30T06:08:18;16.83;;;13.03;;
3101;SDS011;1561;42.666;23.392;2023-04-30T06:10:49;18.10;;;12.70;;
3101;SDS011;1561;42.666;23.392;2023-04-30T06:13:18;16.70;;;12.70;;
3101;SDS011;1561;42.666;23.392;2023-04-30T06:15:45;14.10;;;11.80;;
3101;SDS011;1561;42.666;23.392;2023-04-30T06:18:13;15.00;;;12.83;;
3101;SDS011;1561;42.666;23.392;2023-04-30T06:20:40;14.67;;;12.47;;
3101;SDS011;1561;42.666;23.392;2023-04-30T06:23:07;15.50;;;12.53;;
3101;SDS011;1561;42.666;23.392;2023-04-30T06:25:35;16.07;;;12.30;;
3101;SDS011;1561;42.666;23.392;2023-04-30T06:28:04;19.80;;;12.27;;
3101;SDS011;1561;42.666;23.392;2023-04-30T06:30:37;23.13;;;13.40;;
3101;SDS011;1561;42.666;23.392;2023-04-30T06:33:05;16.90;;;11.87;;
3101;SDS011;1561;42.666;23.392;2023-04-30T06:35:33;13.70;;;12.00;;
3101;SDS011;1561;42.666;23.392;2023-04-30T06:38:03;12.70;;;11.20;;
3101;SDS011;1561;42.666;23.392;2023-04-30T06:40:33;12.90;;;11.60;;
3101;SDS011;1561;42.666;23.392;2023-04-30T06:43:01;16.37;;;11.60;;
3101;SDS011;1561;42.666;23.392;2023-04-30T06:45:32;15.30;;;11.70;;
3101;SDS011;1561;42.666;23.392;2023-04-30T06:48:03;14.53;;;11.13;;
3101;SDS011;1561;42.666;23.392;2023-04-30T06:50:38;14.10;;;11.77;;
3101;SDS011;1561;42.666;23.392;2023-04-30T06:53:10;14.90;;;11.90;;
3101;SDS011;1561;42.666;23.392;2023-04-30T06:55:43;17.60;;;12.17;;
3101;SDS011;1561;42.666;23.392;2023-04-30T06:58:12;17.10;;;13.33;;
3101;SDS011;1561;42.666;23.392;2023-04-30T07:00:39;16.70;;;14.13;;
3101;SDS011;1561;42.666;23.392;2023-04-30T07:03:09;13.73;;;11.97;;
3101;SDS011;1561;42.666;23.392;2023-04-30T07:05:36;15.40;;;13.83;;
3101;SDS011;1561;42.666;23.392;2023-04-30T07:08:08;19.07;;;14.70;;
3101;SDS011;1561;42.666;23.392;2023-04-30T07:10:36;19.73;;;15.97;;
3101;SDS011;1561;42.666;23.392;2023-04-30T07:13:06;18.87;;;15.40;;
3101;SDS011;1561;42.666;23.392;2023-04-30T07:15:36;21.10;;;16.50;;
3101;SDS011;1561;42.666;23.392;2023-04-30T07:18:09;22.13;;;15.93;;
3101;SDS011;1561;42.666;23.392;2023-04-30T07:20:38;18.60;;;16.70;;
3101;SDS011;1561;42.666;23.392;2023-04-30T07:23:10;18.60;;;15.70;;
3101;SDS011;1561;42.666;23.392;2023-04-30T07:25:37;20.60;;;15.70;;
3101;SDS011;1561;42.666;23.392;2023-04-30T07:28:06;17.67;;;15.90;;
3101;SDS011;1561;42.666;23.392;2023-04-30T07:30:35;26.63;;;18.60;;
3101;SDS011;1561;42.666;23.392;2023-04-30T07:33:06;18.70;;;16.60;;
3101;SDS011;1561;42.666;23.392;2023-04-30T07:35:39;19.97;;;17.70;;
3101;SDS011;1561;42.666;23.392;2023-04-30T07:38:10;25.93;;;20.80;;
3101;SDS011;1561;42.666;23.392;2023-04-30T07:40:37;17.23;;;14.73;;
3101;SDS011;1561;42.666;23.392;2023-04-30T07:43:05;23.23;;;17.30;;
3101;SDS011;1561;42.666;23.392;2023-04-30T07:45:34;19.67;;;15.67;;
3101;SDS011;1561;42.666;23.392;2023-04-30T07:48:08;22.53;;;17.03;;
3101;SDS011;1561;42.666;23.392;2023-04-30T07:50:39;18.80;;;16.23;;
3101;SDS011;1561;42.666;23.392;2023-04-30T07:53:09;21.40;;;16.93;;
3101;SDS011;1561;42.666;23.392;2023-04-30T07:55:42;17.03;;;15.20;;
3101;SDS011;1561;42.666;23.392;2023-04-30T07:58:21;17.33;;;15.53;;
3101;SDS011;1561;42.666;23.392;2023-04-30T08:00:51;18.33;;;15.70;;
3101;SDS011;1561;42.666;23.392;2023-04-30T08:03:21;21.10;;;17.30;;
3101;SDS011;1561;42.666;23.392;2023-04-30T08:05:58;17.80;;;14.73;;
3101;SDS011;1561;42.666;23.392;2023-04-30T08:08:26;19.20;;;15.90;;
3101;SDS011;1561;42.666;23.392;2023-04-30T08:10:55;21.80;;;14.53;;
3101;SDS011;1561;42.666;23.392;2023-04-30T08:13:23;18.88;;;14.57;;
3101;SDS011;1561;42.666;23.392;2023-04-30T08:15:51;19.92;;;14.73;;
3101;SDS011;1561;42.666;23.392;2023-04-30T08:18:18;20.67;;;14.45;;
3101;SDS011;1561;42.666;23.392;2023-04-30T08:20:47;19.10;;;13.40;;
3101;SDS011;1561;42.666;23.392;2023-04-30T08:23:20;18.33;;;14.55;;
3101;SDS011;1561;42.666;23.392;2023-04-30T08:25:53;15.25;;;13.65;;
3101;SDS011;1561;42.666;23.392;2023-04-30T08:28:31;16.05;;;14.10;;
3101;SDS011;1561;42.666;23.392;2023-04-30T08:31:11;14.48;;;12.10;;
3101;SDS011;1561;42.666;23.392;2023-04-30T08:33:39;10.15;;;9.15;;
3101;SDS011;1561;42.666;23.392;2023-04-30T08:36:07;13.32;;;9.75;;
3101;SDS011;1561;42.666;23.392;2023-04-30T08:38:38;15.63;;;12.77;;
3101;SDS011;1561;42.666;23.392;2023-04-30T08:41:08;12.97;;;9.47;;
3101;SDS011;1561;42.666;23.392;2023-04-30T08:43:40;9.10;;;7.70;;
3101;SDS011;1561;42.666;23.392;2023-04-30T08:46:09;8.47;;;7.67;;
3101;SDS011;1561;42.666;23.392;2023-04-30T08:48:45;8.27;;;7.57;;
3101;SDS011;1561;42.666;23.392;2023-04-30T08:51:15;9.40;;;7.90;;
3101;SDS011;1561;42.666;23.392;2023-04-30T08:53:46;11.77;;;8.70;;
3101;SDS011;1561;42.666;23.392;2023-04-30T08:56:15;8.23;;;7.43;;
3101;SDS011;1561;42.666;23.392;2023-04-30T08:58:45;12.63;;;7.60;;
3101;SDS011;1561;42.666;23.392;2023-04-30T09:01:15;8.80;;;7.50;;
3101;SDS011;1561;42.666;23.392;2023-04-30T09:03:44;7.70;;;7.00;;
3101;SDS011;1561;42.666;23.392;2023-04-30T09:06:14;7.70;;;7.00;;
3101;SDS011;1561;42.666;23.392;2023-04-30T09:08:49;8.25;;;7.22;;
3101;SDS011;1561;42.666;23.392;2023-04-30T09:11:20;8.70;;;7.88;;
3101;SDS011;1561;42.666;23.392;2023-04-30T09:13:50;9.20;;;8.07;;
3101;SDS011;1561;42.666;23.392;2023-04-30T09:16:28;10.35;;;7.80;;
3101;SDS011;1561;42.666;23.392;2023-04-30T09:18:58;8.10;;;7.40;;
3101;SDS011;1561;42.666;23.392;2023-04-30T09:21:31;8.50;;;7.40;;
3101;SDS011;1561;42.666;23.392;2023-04-30T09:24:25;7.72;;;7.10;;
3101;SDS011;1561;42.666;23.392;2023-04-30T09:26:54;8.50;;;7.70;;
3101;SDS011;1561;42.666;23.392;2023-04-30T09:29:21;8.02;;;7.15;;
3101;SDS011;1561;42.666;23.392;2023-04-30T09:32:09;7.28;;;6.68;;
3101;SDS011;1561;42.666;23.392;2023-04-30T09:34:38;7.03;;;6.45;;
3101;SDS011;1561;42.666;23.392;2023-04-30T09:37:07;7.28;;;6.60;;
3101;SDS011;1561;42.666;23.392;2023-04-30T09:39:50;7.95;;;7.25;;
3101;SDS011;1561;42.666;23.392;2023-04-30T09:42:20;7.72;;;7.03;;
3101;SDS011;1561;42.666;23.392;2023-04-30T09:45:03;7.00;;;6.35;;
3101;SDS011;1561;42.666;23.392;2023-04-30T09:47:34;7.45;;;6.95;;
3101;SDS011;1561;42.666;23.392;2023-04-30T09:50:04;7.32;;;6.72;;
3101;SDS011;1561;42.666;23.392;2023-04-30T09:52:34;7.88;;;7.15;;
3101;SDS011;1561;42.666;23.392;2023-04-30T09:55:03;7.10;;;6.60;;
3101;SDS011;1561;42.666;23.392;2023-04-30T09:57:44;8.32;;;7.57;;
3101;SDS011;1561;42.666;23.392;2023-04-30T10:00:14;7.40;;;6.90;;
3101;SDS011;1561;42.666;23.392;2023-04-30T10:02:59;7.30;;;6.68;;
3101;SDS011;1561;42.666;23.392;2023-04-30T10:05:29;7.30;;;6.60;;
3101;SDS011;1561;42.666;23.392;2023-04-30T10:07:57;6.95;;;6.28;;
3101;SDS011;1561;42.666;23.392;2023-04-30T10:10:27;6.85;;;6.25;;
3101;SDS011;1561;42.666;23.392;2023-04-30T10:12:55;7.10;;;6.60;;
3101;SDS011;1561;42.666;23.392;2023-04-30T10:15:27;6.57;;;6.07;;
3101;SDS011;1561;42.666;23.392;2023-04-30T10:17:59;7.40;;;6.85;;
3101;SDS011;1561;42.666;23.392;2023-04-30T10:20:26;8.77;;;7.13;;
3101;SDS011;1561;42.666;23.392;2023-04-30T10:22:57;6.88;;;6.35;;
3101;SDS011;1561;42.666;23.392;2023-04-30T10:25:37;8.27;;;7.57;;
3101;SDS011;1561;42.666;23.392;2023-04-30T10:28:05;5.78;;;5.38;;
3101;SDS011;1561;42.666;23.392;2023-04-30T10:30:34;4.28;;;3.97;;
3101;SDS011;1561;42.666;23.392;2023-04-30T10:33:11;5.30;;;4.78;;
3101;SDS011;1561;42.666;23.392;2023-04-30T10:35:41;5.38;;;4.97;;
3101;SDS011;1561;42.666;23.392;2023-04-30T10:38:12;8.00;;;6.22;;
3101;SDS011;1561;42.666;23.392;2023-04-30T10:43:37;6.47;;;5.93;;
3101;SDS011;1561;42.666;23.392;2023-04-30T10:46:13;7.70;;;6.90;;
3101;SDS011;1561;42.666;23.392;2023-04-30T10:48:56;7.22;;;6.05;;
3101;SDS011;1561;42.666;23.392;2023-04-30T10:51:25;8.93;;;8.20;;
3101;SDS011;1561;42.666;23.392;2023-04-30T10:54:26;5.60;;;5.30;;
3101;SDS011;1561;42.666;23.392;2023-04-30T10:57:09;6.30;;;5.53;;
3101;SDS011;1561;42.666;23.392;2023-04-30T10:59:51;5.90;;;5.40;;
3101;SDS011;1561;42.666;23.392;2023-04-30T11:02:24;6.07;;;5.60;;
3101;SDS011;1561;42.666;23.392;2023-04-30T11:05:09;6.25;;;5.00;;
3101;SDS011;1561;42.666;23.392;2023-04-30T11:07:45;4.95;;;4.65;;
3101;SDS011;1561;42.666;23.392;2023-04-30T11:10:14;6.53;;;6.03;;
3101;SDS011;1561;42.666;23.392;2023-04-30T11:12:48;6.15;;;5.75;;
3101;SDS011;1561;42.666;23.392;2023-04-30T11:17:58;6.30;;;5.80;;
3101;SDS011;1561;42.666;23.392;2023-04-30T11:20:26;5.65;;;5.25;;
3101;SDS011;1561;42.666;23.392;2023-04-30T11:23:09;7.10;;;6.40;;
3101;SDS011;1561;42.666;23.392;2023-04-30T11:25:41;5.65;;;5.25;;
3101;SDS011;1561;42.666;23.392;2023-04-30T11:28:15;6.97;;;6.50;;
3101;SDS011;1561;42.666;23.392;2023-04-30T11:30:52;5.70;;;5.32;;
3101;SDS011;1561;42.666;23.392;2023-04-30T11:39:13;4.78;;;4.47;;
3101;SDS011;1561;42.666;23.392;2023-04-30T11:41:43;6.38;;;5.78;;
3101;SDS011;1561;42.666;23.392;2023-04-30T11:44:21;4.55;;;4.25;;
3101;SDS011;1561;42.666;23.392;2023-04-30T11:46:57;7.00;;;4.68;;
3101;SDS011;1561;42.666;23.392;2023-04-30T11:49:27;5.53;;;5.13;;
3101;SDS011;1561;42.666;23.392;2023-04-30T11:51:59;5.33;;;4.93;;
3101;SDS011;1561;42.666;23.392;2023-04-30T11:54:31;6.33;;;5.83;;
3101;SDS011;1561;42.666;23.392;2023-04-30T11:57:10;5.00;;;4.60;;
3101;SDS011;1561;42.666;23.392;2023-04-30T11:59:49;5.43;;;5.03;;
3101;SDS011;1561;42.666;23.392;2023-04-30T12:02:30;5.00;;;4.60;;
3101;SDS011;1561;42.666;23.392;2023-04-30T12:04:58;4.87;;;4.37;;
3101;SDS011;1561;42.666;23.392;2023-04-30T12:07:32;5.05;;;4.65;;
3101;SDS011;1561;42.666;23.392;2023-04-30T12:10:07;4.90;;;4.57;;
3101;SDS011;1561;42.666;23.392;2023-04-30T12:12:36;4.90;;;4.50;;
3101;SDS011;1561;42.666;23.392;2023-04-30T12:15:12;5.33;;;4.83;;
3101;SDS011;1561;42.666;23.392;2023-04-30T12:17:46;4.90;;;4.50;;
3101;SDS011;1561;42.666;23.392;2023-04-30T12:20:16;5.00;;;4.63;;
3101;SDS011;1561;42.666;23.392;2023-04-30T12:22:47;5.10;;;4.60;;
3101;SDS011;1561;42.666;23.392;2023-04-30T12:28:22;6.27;;;5.47;;
3101;SDS011;1561;42.666;23.392;2023-04-30T12:30:51;6.23;;;5.83;;
3101;SDS011;1561;42.666;23.392;2023-04-30T12:33:24;5.70;;;5.20;;
3101;SDS011;1561;42.666;23.392;2023-04-30T12:35:57;5.80;;;5.27;;
3101;SDS011;1561;42.666;23.392;2023-04-30T12:38:42;5.80;;;5.30;;
3101;SDS011;1561;42.666;23.392;2023-04-30T12:41:13;5.13;;;4.73;;
3101;SDS011;1561;42.666;23.392;2023-04-30T12:43:46;4.70;;;4.40;;
3101;SDS011;1561;42.666;23.392;2023-04-30T12:46:24;5.70;;;5.10;;
3101;SDS011;1561;42.666;23.392;2023-04-30T12:49:04;7.80;;;6.07;;
3101;SDS011;1561;42.666;23.392;2023-04-30T12:51:33;5.30;;;4.90;;
3101;SDS011;1561;42.666;23.392;2023-04-30T12:54:09;12.63;;;9.40;;
3101;SDS011;1561;42.666;23.392;2023-04-30T12:56:55;8.97;;;6.80;;
3101;SDS011;1561;42.666;23.392;2023-04-30T12:59:35;5.80;;;5.30;;
3101;SDS011;1561;42.666;23.392;2023-04-30T13:02:11;5.10;;;4.70;;
3101;SDS011;1561;42.666;23.392;2023-04-30T13:04:51;6.00;;;5.50;;
3101;SDS011;1561;42.666;23.392;2023-04-30T13:07:22;10.17;;;7.53;;
3101;SDS011;1561;42.666;23.392;2023-04-30T13:09:56;5.10;;;4.60;;
3101;SDS011;1561;42.666;23.392;2023-04-30T13:12:26;6.57;;;5.97;;
3101;SDS011;1561;42.666;23.392;2023-04-30T13:14:57;5.38;;;4.88;;
3101;SDS011;1561;42.666;23.392;2023-04-30T13:17:25;5.82;;;5.25;;
3101;SDS011;1561;42.666;23.392;2023-04-30T13:22:32;4.30;;;3.93;;
3101;SDS011;1561;42.666;23.392;2023-04-30T13:24:59;3.97;;;3.63;;
3101;SDS011;1561;42.666;23.392;2023-04-30T13:27:31;4.73;;;4.33;;
3101;SDS011;1561;42.666;23.392;2023-04-30T13:30:24;5.03;;;4.63;;
3101;SDS011;1561;42.666;23.392;2023-04-30T13:32:51;5.60;;;4.60;;
3101;SDS011;1561;42.666;23.392;2023-04-30T13:35:21;4.80;;;4.40;;
3101;SDS011;1561;42.666;23.392;2023-04-30T13:37:49;4.50;;;4.10;;
3101;SDS011;1561;42.666;23.392;2023-04-30T13:40:21;6.53;;;5.80;;
3101;SDS011;1561;42.666;23.392;2023-04-30T13:42:49;5.37;;;4.47;;
3101;SDS011;1561;42.666;23.392;2023-04-30T13:45:27;5.63;;;4.50;;
3101;SDS011;1561;42.666;23.392;2023-04-30T13:47:56;7.00;;;5.00;;
3101;SDS011;1561;42.666;23.392;2023-04-30T13:50:30;7.22;;;4.70;;
3101;SDS011;1561;42.666;23.392;2023-04-30T13:52:58;7.03;;;6.28;;
3101;SDS011;1561;42.666;23.392;2023-04-30T13:55:30;6.88;;;6.20;;
3101;SDS011;1561;42.666;23.392;2023-04-30T13:57:59;5.78;;;5.28;;
3101;SDS011;1561;42.666;23.392;2023-04-30T14:00:35;5.85;;;5.45;;
3101;SDS011;1561;42.666;23.392;2023-04-30T14:03:08;4.63;;;4.32;;
3101;SDS011;1561;42.666;23.392;2023-04-30T14:05:36;5.53;;;5.03;;
3101;SDS011;1561;42.666;23.392;2023-04-30T14:08:08;4.88;;;4.28;;
3101;SDS011;1561;42.666;23.392;2023-04-30T14:10:38;5.82;;;5.20;;
3101;SDS011;1561;42.666;23.392;2023-04-30T14:13:05;4.97;;;4.65;;
3101;SDS011;1561;42.666;23.392;2023-04-30T14:15:40;5.35;;;4.90;;
3101;SDS011;1561;42.666;23.392;2023-04-30T14:20:53;4.35;;;4.05;;
3101;SDS011;1561;42.666;23.392;2023-04-30T14:23:20;4.90;;;4.60;;
3101;SDS011;1561;42.666;23.392;2023-04-30T14:25:54;5.55;;;5.15;;
3101;SDS011;1561;42.666;23.392;2023-04-30T14:28:35;5.28;;;4.88;;
3101;SDS011;1561;42.666;23.392;2023-04-30T14:31:03;5.38;;;4.97;;
3101;SDS011;1561;42.666;23.392;2023-04-30T14:33:36;5.10;;;4.70;;
3101;SDS011;1561;42.666;23.392;2023-04-30T14:36:03;4.97;;;4.15;;
3101;SDS011;1561;42.666;23.392;2023-04-30T14:38:33;5.43;;;4.90;;
3101;SDS011;1561;42.666;23.392;2023-04-30T14:41:03;5.43;;;4.93;;
3101;SDS011;1561;42.666;23.392;2023-04-30T14:43:32;5.30;;;4.63;;
3101;SDS011;1561;42.666;23.392;2023-04-30T14:45:59;4.90;;;4.50;;
3101;SDS011;1561;42.666;23.392;2023-04-30T14:48:31;5.00;;;4.47;;
3101;SDS011;1561;42.666;23.392;2023-04-30T14:51:00;5.47;;;4.37;;
3101;SDS011;1561;42.666;23.392;2023-04-30T14:53:28;4.67;;;4.20;;
3101;SDS011;1561;42.666;23.392;2023-04-30T14:55:55;4.80;;;4.40;;
3101;SDS011;1561;42.666;23.392;2023-04-30T14:58:22;4.63;;;4.33;;
3101;SDS011;1561;42.666;23.392;2023-04-30T15:00:57;4.93;;;4.63;;
3101;SDS011;1561;42.666;23.392;2023-04-30T15:03:24;5.17;;;4.67;;
3101;SDS011;1561;42.666;23.392;2023-04-30T15:05:56;4.70;;;4.30;;
3101;SDS011;1561;42.666;23.392;2023-04-30T15:08:32;5.20;;;4.80;;
3101;SDS011;1561;42.666;23.392;2023-04-30T15:11:00;5.37;;;4.87;;
3101;SDS011;1561;42.666;23.392;2023-04-30T15:13:31;4.50;;;4.20;;
3101;SDS011;1561;42.666;23.392;2023-04-30T15:16:00;5.07;;;4.60;;
3101;SDS011;1561;42.666;23.392;2023-04-30T15:18:45;5.63;;;5.13;;
3101;SDS011;1561;42.666;23.392;2023-04-30T15:21:16;5.30;;;4.80;;
3101;SDS011;1561;42.666;23.392;2023-04-30T15:23:46;5.50;;;5.00;;
3101;SDS011;1561;42.666;23.392;2023-04-30T15:26:14;5.20;;;4.67;;
3101;SDS011;1561;42.666;23.392;2023-04-30T15:28:51;4.97;;;4.68;;
3101;SDS011;1561;42.666;23.392;2023-04-30T15:31:30;4.73;;;4.43;;
3101;SDS011;1561;42.666;23.392;2023-04-30T15:33:58;5.87;;;5.20;;
3101;SDS011;1561;42.666;23.392;2023-04-30T15:36:29;5.77;;;5.27;;
3101;SDS011;1561;42.666;23.392;2023-04-30T15:38:58;5.45;;;4.90;;
3101;SDS011;1561;42.666;23.392;2023-04-30T15:41:32;6.10;;;4.87;;
3101;SDS011;1561;42.666;23.392;2023-04-30T15:44:07;6.65;;;4.88;;
3101;SDS011;1561;42.666;23.392;2023-04-30T15:46:35;4.90;;;4.55;;
3101;SDS011;1561;42.666;23.392;2023-04-30T15:49:04;5.25;;;4.85;;